createdAt,value
2022-11-07T00:01:17.197Z,11.50
2022-11-07T00:03:44.052Z,11.50
2022-11-07T00:06:11.682Z,11.50
2022-11-07T00:08:38.296Z,11.50
2022-11-07T00:11:05.803Z,11.50
2022-11-07T00:13:33.164Z,11.40
2022-11-07T00:16:01.625Z,11.40
2022-11-07T00:18:28.379Z,11.30
2022-11-07T00:20:55.160Z,11.30
2022-11-07T00:23:21.836Z,11.20
2022-11-07T00:25:48.825Z,11.20
2022-11-07T00:28:15.486Z,11.30
2022-11-07T00:30:42.096Z,11.30
2022-11-07T00:33:08.686Z,11.30
2022-11-07T00:35:35.284Z,11.20
2022-11-07T00:38:02.010Z,11.30
2022-11-07T00:40:28.726Z,11.30
2022-11-07T00:42:55.516Z,11.40
2022-11-07T00:45:22.263Z,11.50
2022-11-07T00:47:49.015Z,11.50
2022-11-07T00:50:15.724Z,11.50
2022-11-07T00:52:42.526Z,11.50
2022-11-07T00:55:09.428Z,11.50
2022-11-07T00:57:36.175Z,11.60
2022-11-07T01:00:04.641Z,11.60
2022-11-07T01:02:31.588Z,11.70
2022-11-07T01:05:10.368Z,11.70
2022-11-07T01:07:38.074Z,11.60
2022-11-07T01:10:06.246Z,11.60
2022-11-07T01:12:36.140Z,11.60
2022-11-07T01:15:04.022Z,11.60
2022-11-07T01:17:31.111Z,11.60
2022-11-07T01:19:57.725Z,11.60
2022-11-07T01:22:24.354Z,11.50
2022-11-07T01:24:50.931Z,11.40
2022-11-07T01:27:17.702Z,11.40
2022-11-07T01:29:44.410Z,11.40
2022-11-07T01:32:11.041Z,11.30
2022-11-07T01:34:37.690Z,11.30
2022-11-07T01:37:04.507Z,11.20
2022-11-07T01:39:31.158Z,11.10
2022-11-07T01:41:58.044Z,11.00
2022-11-07T01:44:24.690Z,11.10
2022-11-07T01:46:55.102Z,11.00
2022-11-07T01:49:23.933Z,11.00
2022-11-07T01:51:53.671Z,11.00
2022-11-07T01:54:25.017Z,11.00
2022-11-07T01:56:53.532Z,10.90
2022-11-07T01:59:25.029Z,10.90
2022-11-07T02:01:52.075Z,10.90
2022-11-07T02:04:21.524Z,10.80
2022-11-07T02:07:01.164Z,10.80
2022-11-07T02:09:28.636Z,10.80
2022-11-07T02:12:00.815Z,10.80
2022-11-07T02:14:30.882Z,10.80
2022-11-07T02:16:57.685Z,10.80
2022-11-07T02:19:47.207Z,10.70
2022-11-07T02:22:25.066Z,10.80
2022-11-07T02:24:58.725Z,10.80
2022-11-07T02:27:27.468Z,10.80
2022-11-07T02:30:00.186Z,10.70
2022-11-07T02:32:26.804Z,10.70
2022-11-07T02:35:26.592Z,10.70
2022-11-07T02:37:54.630Z,10.70
2022-11-07T02:40:21.873Z,10.70
2022-11-07T02:42:48.742Z,10.70
2022-11-07T02:45:26.216Z,10.80
2022-11-07T02:47:53.056Z,10.80
2022-11-07T02:50:20.141Z,10.90
2022-11-07T02:52:46.932Z,10.90
2022-11-07T02:55:15.338Z,10.90
2022-11-07T02:57:42.793Z,10.90
2022-11-07T03:00:12.026Z,10.90
2022-11-07T03:02:38.758Z,10.90
2022-11-07T03:05:06.096Z,10.90
2022-11-07T03:07:33.173Z,10.90
2022-11-07T03:09:59.769Z,11.00
2022-11-07T03:12:26.381Z,11.00
2022-11-07T03:14:53.062Z,11.00
2022-11-07T03:17:19.636Z,11.10
2022-11-07T03:19:46.323Z,11.00
2022-11-07T03:22:13.009Z,11.10
2022-11-07T03:24:39.612Z,11.10
2022-11-07T03:27:06.260Z,11.10
2022-11-07T03:29:33.441Z,11.00
2022-11-07T03:32:00.054Z,11.00
2022-11-07T03:34:27.233Z,11.00
2022-11-07T03:36:54.023Z,11.00
2022-11-07T03:39:25.681Z,11.00
2022-11-07T03:41:52.686Z,11.00
2022-11-07T03:44:19.656Z,11.00
2022-11-07T03:46:46.302Z,11.00
2022-11-07T03:49:13.087Z,11.00
2022-11-07T03:51:40.103Z,11.10
2022-11-07T03:54:07.069Z,11.00
2022-11-07T03:56:34.056Z,11.00
2022-11-07T03:59:00.688Z,11.00
2022-11-07T04:01:27.462Z,10.90
2022-11-07T04:03:56.339Z,10.90
2022-11-07T04:06:23.534Z,10.90
2022-11-07T04:08:50.250Z,10.90
2022-11-07T04:11:36.038Z,10.80
2022-11-07T04:14:21.204Z,10.70
2022-11-07T04:17:07.102Z,10.80
2022-11-07T04:19:33.697Z,10.70
2022-11-07T04:22:00.306Z,10.70
2022-11-07T04:24:27.560Z,10.80
2022-11-07T04:27:14.420Z,10.80
2022-11-07T04:29:41.561Z,10.70
2022-11-07T04:32:08.226Z,10.80
2022-11-07T04:34:34.981Z,10.80
2022-11-07T04:37:01.651Z,10.80
2022-11-07T04:39:28.812Z,10.90
2022-11-07T04:41:56.438Z,11.00
2022-11-07T04:44:23.157Z,11.10
2022-11-07T04:46:49.791Z,11.10
2022-11-07T04:49:18.776Z,11.00
2022-11-07T04:51:45.383Z,11.00
2022-11-07T04:54:16.001Z,10.90
2022-11-07T04:56:42.824Z,10.90
2022-11-07T04:59:09.409Z,10.90
2022-11-07T05:01:36.123Z,10.90
2022-11-07T05:04:02.893Z,10.90
2022-11-07T05:06:30.396Z,10.90
2022-11-07T05:08:57.085Z,10.90
2022-11-07T05:11:23.700Z,10.90
2022-11-07T05:13:50.347Z,10.90
2022-11-07T05:16:17.176Z,10.90
2022-11-07T05:18:44.069Z,11.00
2022-11-07T05:21:11.086Z,11.00
2022-11-07T05:23:38.700Z,11.00
2022-11-07T05:26:05.971Z,11.00
2022-11-07T05:28:38.782Z,11.10
2022-11-07T05:31:08.294Z,11.00
2022-11-07T05:33:36.255Z,11.00
2022-11-07T05:36:17.909Z,11.00
2022-11-07T05:38:47.216Z,11.00
2022-11-07T05:41:15.447Z,11.00
2022-11-07T05:43:42.860Z,11.10
2022-11-07T05:46:09.747Z,11.10
2022-11-07T05:48:37.306Z,11.10
2022-11-07T05:51:05.581Z,11.10
2022-11-07T05:53:32.738Z,11.20
2022-11-07T05:55:59.432Z,11.20
2022-11-07T05:58:26.159Z,11.20
2022-11-07T06:00:52.785Z,11.30
2022-11-07T06:03:22.554Z,11.20
2022-11-07T06:05:49.272Z,11.30
2022-11-07T06:08:15.950Z,11.40
2022-11-07T06:10:43.355Z,11.50
2022-11-07T06:13:15.389Z,11.50
2022-11-07T06:15:43.530Z,11.40
2022-11-07T06:18:18.108Z,11.40
2022-11-07T06:20:45.278Z,11.40
2022-11-07T06:23:12.514Z,11.40
2022-11-07T06:25:39.570Z,11.40
2022-11-07T06:28:11.857Z,11.40
2022-11-07T06:30:38.856Z,11.40
2022-11-07T06:33:08.328Z,11.40
2022-11-07T06:35:35.394Z,11.40
2022-11-07T06:38:03.971Z,11.40
2022-11-07T06:40:30.800Z,11.30
2022-11-07T06:43:10.348Z,11.30
2022-11-07T06:45:48.383Z,11.30
2022-11-07T06:48:15.376Z,11.30
2022-11-07T06:50:42.283Z,11.30
2022-11-07T06:53:11.663Z,11.30
2022-11-07T06:55:39.255Z,11.30
2022-11-07T06:58:06.127Z,11.30
2022-11-07T07:00:34.713Z,11.30
2022-11-07T07:03:01.661Z,11.30
2022-11-07T07:05:28.422Z,11.30
2022-11-07T07:07:55.964Z,11.30
2022-11-07T07:10:24.982Z,11.30
2022-11-07T07:12:56.543Z,11.40
2022-11-07T07:15:23.685Z,11.40
2022-11-07T07:17:50.372Z,11.50
2022-11-07T07:20:17.246Z,11.60
2022-11-07T07:22:49.209Z,11.70
2022-11-07T07:25:20.361Z,11.80
2022-11-07T07:27:47.116Z,11.90
2022-11-07T07:30:14.192Z,12.00
2022-11-07T07:32:41.062Z,12.10
2022-11-07T07:35:09.099Z,12.20
2022-11-07T07:37:35.778Z,12.20
2022-11-07T07:40:02.476Z,12.30
2022-11-07T07:42:29.158Z,12.40
2022-11-07T07:44:55.776Z,12.40
2022-11-07T07:47:22.413Z,12.50
2022-11-07T07:49:49.074Z,12.50
2022-11-07T07:52:15.795Z,12.60
2022-11-07T07:54:42.454Z,12.60
2022-11-07T07:57:09.058Z,12.60
2022-11-07T07:59:35.849Z,12.70
2022-11-07T08:02:02.602Z,12.70
2022-11-07T08:04:29.286Z,12.70
2022-11-07T08:06:55.939Z,12.80
2022-11-07T08:09:22.609Z,12.80
2022-11-07T08:11:49.183Z,12.90
2022-11-07T08:14:16.096Z,12.90
2022-11-07T08:16:42.752Z,13.00
2022-11-07T08:19:09.695Z,13.00
2022-11-07T08:21:36.299Z,13.00
2022-11-07T08:24:03.746Z,13.00
2022-11-07T08:26:31.267Z,13.10
2022-11-07T08:28:57.958Z,13.10
2022-11-07T08:31:24.596Z,13.10
2022-11-07T08:33:51.351Z,13.20
2022-11-07T08:36:18.168Z,13.30
2022-11-07T08:38:44.813Z,13.50
2022-11-07T08:41:11.455Z,13.60
2022-11-07T08:43:38.073Z,13.80
2022-11-07T08:46:04.824Z,13.90
2022-11-07T08:48:31.536Z,14.00
2022-11-07T08:50:59.321Z,14.00
2022-11-07T08:53:27.019Z,14.00
2022-11-07T08:56:00.089Z,13.90
2022-11-07T08:58:30.012Z,13.90
2022-11-07T09:00:57.277Z,13.90
2022-11-07T09:03:44.973Z,13.90
2022-11-07T09:06:11.174Z,14.00
2022-11-07T09:08:37.829Z,14.00
2022-11-07T09:11:05.388Z,14.10
2022-11-07T09:13:33.176Z,14.20
2022-11-07T09:16:00.925Z,14.20
2022-11-07T09:18:28.475Z,14.30
2022-11-07T09:20:55.646Z,14.40
2022-11-07T09:23:22.318Z,14.40
2022-11-07T09:25:49.260Z,14.50
2022-11-07T09:28:16.735Z,14.70
2022-11-07T09:30:43.560Z,14.70
2022-11-07T09:33:10.222Z,14.70
2022-11-07T09:35:36.907Z,14.70
2022-11-07T09:38:03.790Z,14.60
2022-11-07T09:41:05.227Z,14.50
2022-11-07T09:44:08.599Z,14.40
2022-11-07T09:46:54.175Z,14.40
2022-11-07T09:49:46.395Z,14.40
2022-11-07T09:52:18.825Z,14.40
2022-11-07T09:54:58.355Z,14.40
2022-11-07T09:57:27.540Z,14.40
2022-11-07T09:59:57.394Z,14.40
2022-11-07T10:02:29.177Z,14.50
2022-11-07T10:05:02.536Z,14.40
2022-11-07T10:07:49.341Z,14.40
2022-11-07T10:10:26.582Z,14.50
2022-11-07T10:13:11.051Z,14.50
2022-11-07T10:15:50.862Z,14.50
2022-11-07T10:18:33.066Z,14.50
2022-11-07T10:21:37.205Z,14.50
2022-11-07T10:24:04.435Z,14.50
2022-11-07T10:26:32.018Z,14.50
2022-11-07T10:29:05.106Z,14.50
2022-11-07T10:31:39.581Z,14.40
2022-11-07T10:34:42.723Z,14.30
2022-11-07T10:37:09.668Z,14.20
2022-11-07T10:39:36.395Z,14.20
2022-11-07T10:42:15.344Z,14.30
2022-11-07T10:44:43.611Z,14.20
2022-11-07T10:47:24.350Z,14.20
2022-11-07T10:49:59.710Z,14.20
2022-11-07T10:52:27.883Z,14.30
2022-11-07T10:55:09.328Z,14.40
2022-11-07T10:57:36.390Z,14.50
2022-11-07T11:00:08.025Z,14.50
2022-11-07T11:02:48.166Z,14.60
2022-11-07T11:05:40.461Z,14.60
2022-11-07T11:08:36.108Z,14.70
2022-11-07T11:11:16.154Z,14.80
2022-11-07T11:13:42.997Z,14.80
2022-11-07T11:16:37.625Z,14.80
2022-11-07T11:19:05.768Z,14.90
2022-11-07T11:21:44.583Z,14.90
2022-11-07T11:24:41.153Z,14.90
2022-11-07T11:27:10.948Z,14.90
2022-11-07T11:29:51.741Z,15.10
2022-11-07T11:32:31.052Z,15.20
2022-11-07T11:35:08.425Z,15.40
2022-11-07T11:37:40.105Z,15.60
2022-11-07T11:40:15.055Z,15.70
2022-11-07T11:43:02.706Z,15.70
2022-11-07T11:45:32.158Z,15.60
2022-11-07T11:48:10.809Z,15.60
2022-11-07T11:50:49.527Z,15.60
2022-11-07T11:53:20.375Z,15.70
2022-11-07T11:56:11.931Z,15.80
2022-11-07T11:59:03.728Z,15.70
2022-11-07T12:01:39.350Z,15.90
2022-11-07T12:04:21.351Z,15.90
2022-11-07T12:06:50.041Z,15.90
2022-11-07T12:09:23.949Z,15.90
2022-11-07T12:12:17.925Z,15.80
2022-11-07T12:15:18.350Z,15.80
2022-11-07T12:17:57.290Z,15.80
2022-11-07T12:20:45.497Z,15.60
2022-11-07T12:23:34.811Z,15.60
2022-11-07T12:26:08.567Z,15.50
2022-11-07T12:29:02.613Z,15.50
2022-11-07T12:31:56.627Z,15.50
2022-11-07T12:34:38.862Z,15.40
2022-11-07T12:37:23.433Z,15.40
2022-11-07T12:40:20.285Z,15.50
2022-11-07T12:43:21.834Z,15.50
2022-11-07T12:45:53.610Z,15.40
2022-11-07T12:48:46.057Z,15.60
2022-11-07T12:51:34.918Z,15.60
2022-11-07T12:54:16.484Z,15.60
2022-11-07T12:56:45.620Z,15.60
2022-11-07T12:59:20.117Z,15.70
2022-11-07T13:02:02.342Z,15.70
2022-11-07T13:04:42.506Z,15.70
2022-11-07T13:07:28.100Z,15.60
2022-11-07T13:10:05.250Z,15.60
2022-11-07T13:12:52.627Z,15.70
2022-11-07T13:15:19.505Z,15.70
2022-11-07T13:17:47.412Z,15.80
2022-11-07T13:20:21.181Z,15.90
2022-11-07T13:22:52.947Z,15.90
2022-11-07T13:25:34.596Z,15.80
2022-11-07T13:28:23.708Z,15.90
2022-11-07T13:31:03.555Z,15.90
2022-11-07T13:33:35.699Z,15.90
2022-11-07T13:36:15.266Z,15.90
2022-11-07T13:38:51.915Z,15.90
2022-11-07T13:41:19.942Z,15.90
2022-11-07T13:43:58.875Z,15.90
2022-11-07T13:46:45.159Z,16.00
2022-11-07T13:49:23.679Z,15.80
2022-11-07T13:51:52.150Z,15.80
2022-11-07T13:54:44.461Z,15.70
2022-11-07T13:57:23.498Z,15.80
2022-11-07T14:00:14.654Z,15.70
2022-11-07T14:02:54.750Z,15.70
2022-11-07T14:05:24.301Z,15.70
2022-11-07T14:08:02.978Z,15.70
2022-11-07T14:10:47.666Z,15.60
2022-11-07T14:13:20.523Z,15.60
2022-11-07T14:16:03.737Z,15.60
2022-11-07T14:18:42.931Z,15.60
2022-11-07T14:21:25.677Z,15.50
2022-11-07T14:23:52.653Z,15.50
2022-11-07T14:26:23.563Z,15.60
2022-11-07T14:28:50.777Z,15.60
2022-11-07T14:31:26.323Z,15.50
2022-11-07T14:33:59.086Z,15.50
2022-11-07T14:36:26.971Z,15.40
2022-11-07T14:39:00.953Z,15.40
2022-11-07T14:41:28.024Z,15.30
2022-11-07T14:43:59.604Z,15.30
2022-11-07T14:46:26.380Z,15.30
2022-11-07T14:48:53.847Z,15.30
2022-11-07T14:51:26.299Z,15.30
2022-11-07T14:53:57.481Z,15.40
2022-11-07T14:56:31.974Z,15.30
2022-11-07T14:58:59.230Z,15.30
2022-11-07T15:01:34.310Z,15.40
2022-11-07T15:04:15.242Z,15.40
2022-11-07T15:06:44.207Z,15.40
2022-11-07T15:09:12.234Z,15.30
2022-11-07T15:11:40.842Z,15.20
2022-11-07T15:14:23.081Z,15.20
2022-11-07T15:16:50.962Z,15.30
2022-11-07T15:19:23.586Z,15.30
2022-11-07T15:22:03.080Z,15.20
2022-11-07T15:24:38.489Z,15.10
2022-11-07T15:27:28.045Z,15.10
2022-11-07T15:29:57.355Z,15.10
2022-11-07T15:32:35.118Z,15.10
2022-11-07T15:35:42.328Z,15.00
2022-11-07T15:37:53.587Z,15.00
2022-11-07T15:40:20.489Z,15.00
2022-11-07T15:42:47.105Z,15.00
2022-11-07T15:45:13.889Z,15.00
2022-11-07T15:47:40.791Z,15.00
2022-11-07T15:50:22.713Z,14.90
2022-11-07T15:52:49.657Z,14.80
2022-11-07T15:55:19.447Z,14.80
2022-11-07T15:57:49.051Z,14.70
2022-11-07T16:00:26.615Z,14.70
2022-11-07T16:03:04.956Z,14.70
2022-11-07T16:05:33.802Z,14.70
2022-11-07T16:08:13.513Z,14.70
2022-11-07T16:11:11.519Z,14.70
2022-11-07T16:13:47.685Z,14.80
2022-11-07T16:16:32.540Z,14.80
2022-11-07T16:19:05.332Z,14.70
2022-11-07T16:21:33.881Z,14.60
2022-11-07T16:24:40.493Z,14.50
2022-11-07T16:27:26.579Z,14.50
2022-11-07T16:30:04.786Z,14.40
2022-11-07T16:32:34.688Z,14.40
2022-11-07T16:35:04.842Z,14.40
2022-11-07T16:37:34.375Z,14.40
2022-11-07T16:40:08.743Z,14.40
2022-11-07T16:42:35.760Z,14.30
2022-11-07T16:45:02.980Z,14.40
2022-11-07T16:47:47.927Z,14.40
2022-11-07T16:50:17.206Z,14.40
2022-11-07T16:52:53.987Z,14.50
2022-11-07T16:55:23.381Z,14.40
2022-11-07T16:57:53.039Z,14.40
2022-11-07T17:00:24.272Z,14.40
2022-11-07T17:02:59.095Z,14.40
2022-11-07T17:06:34.163Z,14.40
2022-11-07T17:09:16.652Z,14.40
2022-11-07T17:12:50.407Z,14.40
2022-11-07T17:15:36.580Z,14.40
2022-11-07T17:18:23.721Z,14.40
2022-11-07T17:23:45.215Z,14.40
2022-11-07T17:26:36.040Z,14.40
2022-11-07T17:29:21.185Z,14.40
2022-11-07T17:35:32.694Z,14.50
2022-11-07T17:38:30.503Z,14.40
2022-11-07T17:45:14.454Z,14.40
2022-11-07T17:47:46.837Z,14.40
2022-11-07T17:51:18.006Z,14.40
2022-11-07T17:54:41.573Z,14.40
2022-11-07T17:57:38.222Z,14.40
2022-11-07T18:00:37.272Z,14.40
2022-11-07T18:03:04.692Z,14.50
2022-11-07T18:05:38.488Z,14.60
2022-11-07T18:15:23.960Z,14.60
2022-11-07T18:18:29.400Z,14.60
2022-11-07T18:21:42.355Z,14.60
2022-11-07T18:25:27.119Z,14.50
2022-11-07T18:28:17.715Z,14.50
2022-11-07T18:30:54.899Z,14.50
2022-11-07T18:33:21.745Z,14.40
2022-11-07T18:35:49.480Z,14.50
2022-11-07T18:38:16.405Z,14.50
2022-11-07T18:40:43.196Z,14.40
2022-11-07T18:43:11.857Z,14.40
2022-11-07T18:45:41.546Z,14.40
2022-11-07T18:48:08.407Z,14.40
2022-11-07T18:50:38.203Z,14.40
2022-11-07T18:53:04.794Z,14.40
2022-11-07T18:55:31.786Z,14.50
2022-11-07T18:58:01.112Z,14.50
2022-11-07T19:00:27.885Z,14.50
2022-11-07T19:02:54.577Z,14.50
2022-11-07T19:05:22.150Z,14.50
2022-11-07T19:07:49.778Z,14.40
2022-11-07T19:10:17.243Z,14.40
2022-11-07T19:12:43.900Z,14.40
2022-11-07T19:15:11.197Z,14.40
2022-11-07T19:17:37.828Z,14.30
2022-11-07T19:20:05.489Z,14.40
2022-11-07T19:22:32.072Z,14.30
2022-11-07T19:24:58.685Z,14.20
2022-11-07T19:27:25.486Z,14.10
2022-11-07T19:29:52.161Z,14.10
2022-11-07T19:32:18.923Z,14.10
2022-11-07T19:34:45.725Z,14.00
2022-11-07T19:37:12.385Z,13.90
2022-11-07T19:39:39.110Z,13.80
2022-11-07T19:42:05.976Z,13.90
2022-11-07T19:44:34.224Z,13.80
2022-11-07T19:47:00.903Z,13.80
2022-11-07T19:49:27.535Z,13.80
2022-11-07T19:51:54.217Z,13.80
2022-11-07T19:54:20.845Z,13.60
2022-11-07T19:56:49.124Z,13.60
2022-11-07T19:59:17.506Z,13.60
2022-11-07T20:01:45.966Z,13.50
2022-11-07T20:04:17.440Z,13.50
2022-11-07T20:06:44.141Z,13.50
2022-11-07T20:09:12.725Z,13.40
2022-11-07T20:11:40.186Z,13.40
2022-11-07T20:14:06.809Z,13.30
2022-11-07T20:16:34.093Z,13.40
2022-11-07T20:19:01.275Z,13.40
2022-11-07T20:21:29.067Z,13.30
2022-11-07T20:23:57.941Z,13.30
2022-11-07T20:26:25.886Z,13.30
2022-11-07T20:28:53.247Z,13.30
2022-11-07T20:31:28.904Z,13.30
2022-11-07T20:33:58.669Z,13.20
2022-11-07T20:36:26.495Z,13.20
2022-11-07T20:38:56.645Z,13.20
2022-11-07T20:41:24.402Z,13.20
2022-11-07T20:44:01.292Z,13.20
2022-11-07T20:46:28.349Z,13.20
2022-11-07T20:48:54.957Z,13.10
2022-11-07T20:51:25.046Z,13.10
2022-11-07T20:53:52.616Z,13.10
2022-11-07T20:56:20.954Z,13.10
2022-11-07T20:58:48.628Z,13.10
2022-11-07T21:01:19.044Z,13.10
2022-11-07T21:03:46.411Z,13.10
2022-11-07T21:06:13.155Z,13.10
2022-11-07T21:08:48.656Z,13.20
2022-11-07T21:11:16.213Z,13.10
2022-11-07T21:13:48.024Z,13.10
2022-11-07T21:16:20.521Z,13.10
2022-11-07T21:18:47.294Z,13.10
2022-11-07T21:21:20.564Z,13.10
2022-11-07T21:23:48.897Z,13.10
2022-11-07T21:26:21.851Z,13.00
2022-11-07T21:28:48.476Z,13.00
2022-11-07T21:31:18.556Z,13.00
2022-11-07T21:33:46.379Z,13.10
2022-11-07T21:36:16.245Z,13.10
2022-11-07T21:38:44.761Z,13.10
2022-11-07T21:41:11.578Z,13.10
2022-11-07T21:43:38.838Z,13.10
2022-11-07T21:46:13.693Z,13.10
2022-11-07T21:48:41.189Z,13.10
2022-11-07T21:51:13.706Z,13.00
2022-11-07T21:53:40.929Z,13.00
2022-11-07T21:56:12.361Z,13.00
2022-11-07T21:58:39.079Z,13.00
2022-11-07T22:01:06.130Z,12.90
2022-11-07T22:04:03.859Z,12.90
2022-11-07T22:06:20.950Z,12.90
2022-11-07T22:08:49.705Z,12.90
2022-11-07T22:11:17.057Z,13.00
2022-11-07T22:13:44.237Z,12.90
2022-11-07T22:16:17.207Z,12.90
2022-11-07T22:18:44.089Z,13.00
2022-11-07T22:21:13.621Z,13.00
2022-11-07T22:23:41.611Z,13.00
2022-11-07T22:26:12.461Z,13.00
2022-11-07T22:28:44.377Z,13.10
2022-11-07T22:31:18.242Z,13.10
2022-11-07T22:33:45.131Z,13.20
2022-11-07T22:36:12.569Z,13.10
2022-11-07T22:38:40.148Z,13.10
2022-11-07T22:41:09.077Z,13.10
2022-11-07T22:43:35.677Z,13.10
2022-11-07T22:46:03.361Z,13.20
2022-11-07T22:48:30.642Z,13.10
2022-11-07T22:51:04.149Z,13.10
2022-11-07T22:53:30.890Z,13.10
2022-11-07T22:55:57.666Z,13.10
2022-11-07T22:58:24.549Z,13.00
2022-11-07T23:00:51.215Z,12.90
2022-11-07T23:03:18.274Z,12.90
2022-11-07T23:05:44.920Z,12.80
2022-11-07T23:08:11.585Z,12.80
2022-11-07T23:10:38.341Z,12.80
2022-11-07T23:13:05.018Z,12.70
2022-11-07T23:15:32.129Z,12.60
2022-11-07T23:17:59.045Z,12.60
2022-11-07T23:20:44.157Z,12.60
2022-11-07T23:23:10.760Z,12.60
2022-11-07T23:25:37.407Z,12.50
2022-11-07T23:28:07.355Z,12.50
2022-11-07T23:30:37.141Z,12.40
2022-11-07T23:33:03.972Z,12.40
2022-11-07T23:35:32.122Z,12.40
2022-11-07T23:37:59.056Z,12.40
2022-11-07T23:40:25.824Z,12.30
2022-11-07T23:42:52.424Z,12.30
2022-11-07T23:45:38.070Z,12.30
2022-11-07T23:48:23.327Z,12.20
2022-11-07T23:51:05.439Z,12.20
2022-11-07T23:53:51.700Z,12.20
2022-11-07T23:56:20.392Z,12.20
2022-11-07T23:59:06.042Z,12.10
